Time;durP1;ratioP1;P1;durP2;ratioP2;P2;SDS_P1;SDS_P2;PMS_P1;PMS_P2;Temp;Humidity;BMP_temperature;BMP_pressure;BME280_temperature;BME280_humidity;BME280_pressure;Samples;Min_cycle;Max_cycle;Signal;HPM_P1;HPM_P2
2023/09/15 00:00:43;;;;;;;10.90;4.60;;;;;;;;;;4992667;28;20077;-67
2023/09/15 00:03:09;;;;;;;11.05;4.85;;;;;;;;;;5005002;28;20064;-67
2023/09/15 00:05:38;;;;;;;10.02;4.28;;;;;;;;;;5012052;28;20069;-67
2023/09/15 00:08:06;;;;;;;8.93;4.05;;;;;;;;;;5023384;28;20103;-67
2023/09/15 00:10:35;;;;;;;11.48;4.60;;;;;;;;;;5022484;28;20045;-68
2023/09/15 00:13:03;;;;;;;8.07;4.18;;;;;;;;;;5029711;28;20124;-67
2023/09/15 00:15:29;;;;;;;9.57;3.88;;;;;;;;;;5011746;28;20083;-67
2023/09/15 00:17:57;;;;;;;9.88;4.10;;;;;;;;;;5023488;28;20065;-66
2023/09/15 00:20:26;;;;;;;9.65;4.22;;;;;;;;;;5026035;28;20085;-67
2023/09/15 00:22:56;;;;;;;9.00;3.97;;;;;;;;;;5024012;28;20963;-67
2023/09/15 00:25:25;;;;;;;9.95;4.22;;;;;;;;;;5019893;28;20065;-67
2023/09/15 00:27:53;;;;;;;12.63;4.20;;;;;;;;;;5025255;28;20111;-68
2023/09/15 00:30:21;;;;;;;11.43;4.28;;;;;;;;;;5024468;28;20136;-67
2023/09/15 00:32:49;;;;;;;10.68;4.20;;;;;;;;;;5022495;28;20065;-67
2023/09/15 00:35:17;;;;;;;10.25;4.13;;;;;;;;;;5019483;28;20077;-67
2023/09/15 00:37:45;;;;;;;9.32;3.88;;;;;;;;;;5020905;28;20057;-68
2023/09/15 00:40:14;;;;;;;10.95;4.35;;;;;;;;;;5005838;28;20104;-67
2023/09/15 00:42:43;;;;;;;8.23;4.22;;;;;;;;;;5005072;28;20085;-67
2023/09/15 00:45:14;;;;;;;10.32;4.45;;;;;;;;;;5000300;28;20145;-67
2023/09/15 00:47:43;;;;;;;10.90;4.20;;;;;;;;;;5004082;28;20053;-67
2023/09/15 00:50:13;;;;;;;9.98;4.10;;;;;;;;;;5004255;28;20057;-67
2023/09/15 00:52:40;;;;;;;9.38;4.18;;;;;;;;;;4998142;28;20057;-67
2023/09/15 00:55:08;;;;;;;12.32;4.57;;;;;;;;;;4999840;28;20073;-68
2023/09/15 00:57:37;;;;;;;;;;;;;;;;;;5005890;28;20061;-68
2023/09/15 01:00:11;;;;;;;10.57;4.43;;;;;;;;;;5006608;28;20012;-68
2023/09/15 01:02:38;;;;;;;10.68;4.18;;;;;;;;;;4976850;28;20046;-68
2023/09/15 01:05:06;;;;;;;9.80;4.05;;;;;;;;;;4978672;28;20164;-68
2023/09/15 01:07:34;;;;;;;11.90;4.00;;;;;;;;;;4997553;28;20054;-68
2023/09/15 01:10:00;;;;;;;10.73;4.10;;;;;;;;;;4983712;28;20081;-67
2023/09/15 01:12:27;;;;;;;9.10;3.95;;;;;;;;;;4982841;28;20086;-68
2023/09/15 01:14:56;;;;;;;11.55;4.15;;;;;;;;;;4981548;28;20061;-67
2023/09/15 01:17:27;;;;;;;11.60;4.05;;;;;;;;;;5004272;28;20065;-67
2023/09/15 01:20:09;;;;;;;7.82;3.45;;;;;;;;;;5027677;28;20052;-68
2023/09/15 01:22:57;;;;;;;12.20;4.28;;;;;;;;;;5016307;28;20088;-68
2023/09/15 01:25:36;;;;;;;;;;;;;;;;;;5023198;28;20056;-67
2023/09/15 01:28:09;;;;;;;;;;;;;;;;;;5036938;28;20023;-67
2023/09/15 01:30:38;;;;;;;6.82;3.33;;;;;;;;;;5015561;28;19946;-66
2023/09/15 01:33:09;;;;;;;8.93;3.55;;;;;;;;;;5023690;28;20070;-67
2023/09/15 01:35:35;;;;;;;9.38;3.88;;;;;;;;;;5021925;28;20068;-67
2023/09/15 01:38:02;;;;;;;10.15;3.83;;;;;;;;;;5023742;28;20061;-68
2023/09/15 01:40:31;;;;;;;12.00;4.50;;;;;;;;;;5022880;28;20054;-67
2023/09/15 01:42:58;;;;;;;8.00;3.92;;;;;;;;;;5021107;28;20061;-67
2023/09/15 01:45:24;;;;;;;9.70;3.75;;;;;;;;;;5009515;28;20057;-67
2023/09/15 01:47:53;;;;;;;9.95;4.35;;;;;;;;;;5022204;28;20135;-67
2023/09/15 01:50:21;;;;;;;12.02;3.95;;;;;;;;;;5022968;28;20057;-67
2023/09/15 01:52:48;;;;;;;8.85;4.00;;;;;;;;;;5015986;28;20053;-67
2023/09/15 01:55:15;;;;;;;9.25;3.78;;;;;;;;;;5010861;28;20084;-67
2023/09/15 01:57:42;;;;;;;10.75;4.13;;;;;;;;;;5021290;28;20139;-67
2023/09/15 02:00:10;;;;;;;9.45;3.70;;;;;;;;;;5022308;28;20061;-67
2023/09/15 02:02:37;;;;;;;9.27;3.63;;;;;;;;;;4993165;28;20045;-68
2023/09/15 02:05:06;;;;;;;13.95;4.38;;;;;;;;;;4993622;28;20145;-67
2023/09/15 02:07:32;;;;;;;10.55;3.90;;;;;;;;;;5021467;28;20115;-67
2023/09/15 02:09:59;;;;;;;11.95;3.85;;;;;;;;;;5021985;28;20053;-67
2023/09/15 02:12:26;;;;;;;11.57;3.90;;;;;;;;;;5013562;28;20107;-67
2023/09/15 02:14:52;;;;;;;11.50;4.40;;;;;;;;;;5028553;28;20065;-67
2023/09/15 02:17:19;;;;;;;7.95;3.67;;;;;;;;;;5041399;28;20064;-67
2023/09/15 02:19:47;;;;;;;13.23;4.00;;;;;;;;;;5042811;28;20060;-67
2023/09/15 02:22:15;;;;;;;8.60;3.67;;;;;;;;;;5032999;28;20045;-67
2023/09/15 02:24:42;;;;;;;10.23;3.55;;;;;;;;;;5037847;28;20048;-67
2023/09/15 02:27:08;;;;;;;9.25;3.88;;;;;;;;;;5041851;28;20091;-68
2023/09/15 02:29:35;;;;;;;10.20;3.97;;;;;;;;;;5041472;28;20048;-69
2023/09/15 02:32:02;;;;;;;9.95;3.45;;;;;;;;;;5030103;28;20115;-67
2023/09/15 02:34:29;;;;;;;9.80;4.18;;;;;;;;;;5001426;28;22211;-66
2023/09/15 02:36:55;;;;;;;9.48;4.05;;;;;;;;;;5021357;28;20129;-67
2023/09/15 02:39:23;;;;;;;10.57;4.25;;;;;;;;;;5037097;28;20131;-67
2023/09/15 02:41:50;;;;;;;9.02;4.00;;;;;;;;;;5041061;28;20061;-67
2023/09/15 02:44:17;;;;;;;10.38;3.72;;;;;;;;;;5025565;28;20057;-69
2023/09/15 02:46:44;;;;;;;9.27;4.07;;;;;;;;;;5022685;28;20061;-68
2023/09/15 02:49:10;;;;;;;9.63;3.72;;;;;;;;;;5022349;28;20111;-68
2023/09/15 02:51:37;;;;;;;10.27;4.15;;;;;;;;;;5023217;28;20149;-68
2023/09/15 02:54:06;;;;;;;10.77;4.10;;;;;;;;;;5016837;28;20077;-69
2023/09/15 02:56:34;;;;;;;10.23;4.63;;;;;;;;;;5016307;28;20057;-66
2023/09/15 02:59:01;;;;;;;9.05;3.95;;;;;;;;;;5014694;28;20085;-67
2023/09/15 03:01:27;;;;;;;11.98;4.05;;;;;;;;;;4980983;28;20132;-67
2023/09/15 03:03:55;;;;;;;10.52;3.97;;;;;;;;;;4984121;28;20050;-68
2023/09/15 03:06:22;;;;;;;9.50;3.80;;;;;;;;;;4994640;28;20084;-69
2023/09/15 03:08:49;;;;;;;15.95;4.35;;;;;;;;;;5003343;28;20049;-68
2023/09/15 03:11:17;;;;;;;8.50;3.72;;;;;;;;;;5020891;28;20050;-68
2023/09/15 03:13:46;;;;;;;9.15;4.07;;;;;;;;;;4997970;28;20062;-68
2023/09/15 03:16:13;;;;;;;10.20;4.60;;;;;;;;;;4985375;28;20058;-69
2023/09/15 03:18:42;;;;;;;11.38;3.88;;;;;;;;;;5002323;28;20061;-69
2023/09/15 03:21:09;;;;;;;8.80;4.53;;;;;;;;;;5017644;28;20054;-68
2023/09/15 03:23:35;;;;;;;9.52;4.55;;;;;;;;;;5001995;28;20085;-67
2023/09/15 03:26:03;;;;;;;9.13;4.03;;;;;;;;;;5013633;28;20125;-67
2023/09/15 03:28:32;;;;;;;11.50;3.90;;;;;;;;;;4994031;28;21493;-67
2023/09/15 03:31:00;;;;;;;10.85;3.75;;;;;;;;;;5002458;28;20309;-67
2023/09/15 03:33:27;;;;;;;8.30;4.05;;;;;;;;;;5000949;28;20046;-68
2023/09/15 03:35:54;;;;;;;10.65;4.22;;;;;;;;;;5008771;28;20053;-67
2023/09/15 03:38:21;;;;;;;12.98;4.28;;;;;;;;;;5006356;28;20062;-68
2023/09/15 03:40:48;;;;;;;10.80;3.95;;;;;;;;;;5004749;28;20049;-68
2023/09/15 03:43:15;;;;;;;9.43;3.92;;;;;;;;;;5004811;28;20096;-68
2023/09/15 03:45:43;;;;;;;12.13;4.28;;;;;;;;;;5009483;28;20339;-66
2023/09/15 03:48:11;;;;;;;;;;;;;;;;;;5022650;28;20139;-67
2023/09/15 03:50:38;;;;;;;9.52;3.72;;;;;;;;;;5025345;28;19931;-67
2023/09/15 03:53:05;;;;;;;11.63;4.40;;;;;;;;;;5024806;28;20049;-67
2023/09/15 03:55:32;;;;;;;11.85;4.30;;;;;;;;;;5019683;28;20049;-67
2023/09/15 03:57:59;;;;;;;10.18;4.45;;;;;;;;;;5025815;28;20058;-67
2023/09/15 04:00:25;;;;;;;9.20;4.35;;;;;;;;;;5016020;28;20075;-67
2023/09/15 04:02:53;;;;;;;10.20;4.63;;;;;;;;;;5024351;28;21995;-67
2023/09/15 04:05:21;;;;;;;11.15;4.55;;;;;;;;;;5021369;28;20064;-68
2023/09/15 04:07:48;;;;;;;9.02;4.15;;;;;;;;;;5039368;28;20049;-68
2023/09/15 04:10:15;;;;;;;12.20;4.80;;;;;;;;;;5017548;28;20061;-66
2023/09/15 04:12:42;;;;;;;12.13;4.95;;;;;;;;;;5030682;28;20057;-67
2023/09/15 04:15:11;;;;;;;10.52;4.15;;;;;;;;;;5020114;28;20144;-67
2023/09/15 04:17:37;;;;;;;10.68;4.38;;;;;;;;;;5024337;28;20105;-67
2023/09/15 04:20:09;;;;;;;10.85;4.35;;;;;;;;;;5022027;28;20053;-67
2023/09/15 04:22:38;;;;;;;11.77;4.55;;;;;;;;;;5021403;28;20053;-67
2023/09/15 04:25:06;;;;;;;10.20;4.57;;;;;;;;;;5029907;28;20080;-66
2023/09/15 04:27:33;;;;;;;12.48;4.68;;;;;;;;;;5030099;28;20068;-66
2023/09/15 04:30:00;;;;;;;9.05;4.03;;;;;;;;;;5025184;28;20292;-67
2023/09/15 04:32:27;;;;;;;13.55;4.53;;;;;;;;;;5017399;28;20152;-67
2023/09/15 04:34:55;;;;;;;15.75;4.75;;;;;;;;;;5019414;28;20077;-69
2023/09/15 04:37:22;;;;;;;10.50;4.88;;;;;;;;;;5021912;28;20085;-66
2023/09/15 04:39:51;;;;;;;17.52;6.60;;;;;;;;;;5005753;28;20054;-67
2023/09/15 04:42:18;;;;;;;12.85;5.95;;;;;;;;;;4997618;28;20112;-67
2023/09/15 04:44:44;;;;;;;11.80;5.05;;;;;;;;;;5017841;28;20061;-69
2023/09/15 04:47:13;;;;;;;12.75;4.57;;;;;;;;;;5017282;28;20119;-70
2023/09/15 04:49:39;;;;;;;13.73;4.47;;;;;;;;;;5023346;28;20061;-67
2023/09/15 04:52:06;;;;;;;11.18;4.53;;;;;;;;;;5021982;28;20057;-68
2023/09/15 04:54:33;;;;;;;12.05;4.55;;;;;;;;;;4993544;28;20077;-68
2023/09/15 04:57:01;;;;;;;11.07;4.93;;;;;;;;;;5001473;28;20069;-66
2023/09/15 04:59:28;;;;;;;12.00;4.75;;;;;;;;;;5002828;28;20095;-67
2023/09/15 05:01:54;;;;;;;13.90;4.63;;;;;;;;;;5004142;28;20057;-68
2023/09/15 05:04:21;;;;;;;13.75;4.13;;;;;;;;;;4992409;28;20073;-67
2023/09/15 05:06:48;;;;;;;10.85;4.53;;;;;;;;;;5002297;28;20054;-67
2023/09/15 05:09:20;;;;;;;11.13;4.45;;;;;;;;;;5000679;28;20136;-68
2023/09/15 05:11:46;;;;;;;15.27;4.60;;;;;;;;;;5002256;28;20093;-68
2023/09/15 05:14:16;;;;;;;13.85;4.55;;;;;;;;;;4995251;28;21580;-67
2023/09/15 05:16:45;;;;;;;13.52;4.93;;;;;;;;;;5021828;28;20053;-67
2023/09/15 05:19:11;;;;;;;15.45;5.32;;;;;;;;;;5023084;28;20068;-67
2023/09/15 05:21:38;;;;;;;11.43;4.18;;;;;;;;;;5017435;28;20061;-68
2023/09/15 05:24:07;;;;;;;10.68;4.15;;;;;;;;;;4983150;28;20075;-68
2023/09/15 05:26:33;;;;;;;;;;;;;;;;;;5007347;28;20057;-69
2023/09/15 05:29:02;;;;;;;13.00;4.15;;;;;;;;;;5018222;28;19988;-69
2023/09/15 05:31:30;;;;;;;8.27;3.65;;;;;;;;;;5018500;28;20072;-69
2023/09/15 05:33:57;;;;;;;8.63;3.83;;;;;;;;;;5006898;28;20046;-69
2023/09/15 05:36:24;;;;;;;11.38;4.32;;;;;;;;;;5011243;28;20061;-69
2023/09/15 05:38:52;;;;;;;10.38;3.80;;;;;;;;;;5022789;28;20057;-67
2023/09/15 05:41:18;;;;;;;8.25;3.80;;;;;;;;;;5018655;28;20068;-66
2023/09/15 05:43:45;;;;;;;14.27;4.13;;;;;;;;;;5020914;28;20162;-67
2023/09/15 05:46:13;;;;;;;12.70;4.25;;;;;;;;;;4992563;28;20049;-66
2023/09/15 05:48:41;;;;;;;14.73;4.57;;;;;;;;;;5016945;28;20103;-67
2023/09/15 05:51:07;;;;;;;32.75;15.55;;;;;;;;;;5018168;28;20294;-66
2023/09/15 05:53:34;;;;;;;20.98;10.07;;;;;;;;;;5023115;28;20061;-66
2023/09/15 05:56:02;;;;;;;15.93;6.88;;;;;;;;;;5019966;28;20057;-66
2023/09/15 05:58:29;;;;;;;12.70;5.13;;;;;;;;;;5011977;28;20057;-67
2023/09/15 06:00:57;;;;;;;11.20;5.13;;;;;;;;;;5014571;28;20085;-66
2023/09/15 06:03:24;;;;;;;11.77;4.68;;;;;;;;;;5014268;28;20068;-66
2023/09/15 06:05:52;;;;;;;12.40;4.32;;;;;;;;;;5009908;28;20068;-66
2023/09/15 06:08:19;;;;;;;12.30;4.18;;;;;;;;;;4997535;28;20068;-64
2023/09/15 06:10:47;;;;;;;10.68;4.25;;;;;;;;;;5017622;28;20053;-67
2023/09/15 06:13:14;;;;;;;8.95;4.00;;;;;;;;;;5017543;28;20137;-66
2023/09/15 06:15:41;;;;;;;12.23;3.60;;;;;;;;;;5013738;28;20066;-67
2023/09/15 06:18:07;;;;;;;10.65;4.55;;;;;;;;;;5019278;28;20114;-66
2023/09/15 06:20:34;;;;;;;10.52;3.83;;;;;;;;;;5018526;28;20161;-66
2023/09/15 06:23:03;;;;;;;9.23;4.18;;;;;;;;;;5017386;28;20060;-67
2023/09/15 06:25:31;;;;;;;10.90;4.50;;;;;;;;;;4995475;28;20057;-66
2023/09/15 06:27:59;;;;;;;9.55;4.25;;;;;;;;;;5016727;28;20084;-67
2023/09/15 06:30:26;;;;;;;16.85;7.28;;;;;;;;;;5008469;28;20115;-66
2023/09/15 06:32:54;;;;;;;11.63;5.45;;;;;;;;;;5017624;28;20049;-66
2023/09/15 06:35:21;;;;;;;12.43;4.80;;;;;;;;;;5012638;28;20144;-66
2023/09/15 06:37:47;;;;;;;10.95;4.38;;;;;;;;;;5018796;28;20057;-66
2023/09/15 06:40:16;;;;;;;15.02;3.80;;;;;;;;;;5008767;28;20057;-66
2023/09/15 06:42:50;;;;;;;12.02;4.00;;;;;;;;;;5017876;28;20089;-65
2023/09/15 06:45:17;;;;;;;10.88;4.47;;;;;;;;;;5003837;28;20174;-65
2023/09/15 06:47:43;;;;;;;10.10;4.10;;;;;;;;;;5017328;28;20058;-65
2023/09/15 06:50:11;;;;;;;11.88;4.13;;;;;;;;;;5012368;28;20092;-65
2023/09/15 06:52:38;;;;;;;9.95;3.80;;;;;;;;;;5018240;28;20123;-67
2023/09/15 06:55:08;;;;;;;9.40;4.18;;;;;;;;;;5014003;28;20262;-66
2023/09/15 06:57:37;;;;;;;8.75;4.03;;;;;;;;;;5005561;28;20057;-66
2023/09/15 07:00:04;;;;;;;12.95;4.45;;;;;;;;;;5015387;28;20049;-66
2023/09/15 07:02:31;;;;;;;23.10;11.75;;;;;;;;;;5025916;28;20061;-66
2023/09/15 07:04:58;;;;;;;17.50;5.63;;;;;;;;;;5011963;28;20045;-67
2023/09/15 07:07:24;;;;;;;11.38;4.72;;;;;;;;;;5019199;28;20057;-66
2023/09/15 07:09:51;;;;;;;14.10;5.72;;;;;;;;;;5018006;28;20071;-67
2023/09/15 07:12:18;;;;;;;10.43;4.03;;;;;;;;;;5009333;28;20049;-67
2023/09/15 07:14:49;;;;;;;10.15;3.88;;;;;;;;;;5004819;28;20053;-66
2023/09/15 07:17:16;;;;;;;9.80;3.90;;;;;;;;;;5016899;28;20147;-68
2023/09/15 07:19:44;;;;;;;10.23;4.03;;;;;;;;;;5016174;28;20063;-65
2023/09/15 07:22:11;;;;;;;11.00;3.75;;;;;;;;;;5015067;28;20067;-64
2023/09/15 07:24:40;;;;;;;9.80;3.45;;;;;;;;;;4990523;28;20057;-67
2023/09/15 07:27:08;;;;;;;8.52;3.83;;;;;;;;;;5016569;28;20149;-66
2023/09/15 07:29:35;;;;;;;10.50;3.85;;;;;;;;;;5016156;28;20148;-66
2023/09/15 07:32:04;;;;;;;9.15;4.00;;;;;;;;;;5017100;28;20052;-66
2023/09/15 07:34:31;;;;;;;12.52;4.22;;;;;;;;;;5002342;28;20061;-66
2023/09/15 07:37:10;;;;;;;10.68;3.58;;;;;;;;;;5016844;28;20125;-67
2023/09/15 07:39:37;;;;;;;11.60;4.00;;;;;;;;;;5016419;28;20115;-66
2023/09/15 07:42:08;;;;;;;12.30;3.97;;;;;;;;;;5015387;28;20057;-67
2023/09/15 07:44:39;;;;;;;9.05;3.70;;;;;;;;;;5008609;28;20114;-67
2023/09/15 07:47:12;;;;;;;13.18;3.53;;;;;;;;;;5016423;28;20058;-66
2023/09/15 07:49:38;;;;;;;20.02;8.30;;;;;;;;;;5016669;28;20057;-68
2023/09/15 07:52:06;;;;;;;28.33;13.02;;;;;;;;;;5015999;28;20045;-67
2023/09/15 07:54:33;;;;;;;15.60;5.68;;;;;;;;;;5006259;28;20162;-66
2023/09/15 07:57:00;;;;;;;13.38;4.53;;;;;;;;;;5017576;28;20115;-66
2023/09/15 07:59:27;;;;;;;9.88;3.72;;;;;;;;;;5017052;28;20183;-66
2023/09/15 08:01:53;;;;;;;10.82;3.80;;;;;;;;;;5016204;28;20073;-67
2023/09/15 08:04:21;;;;;;;12.75;4.38;;;;;;;;;;5005441;28;20077;-66
2023/09/15 08:06:49;;;;;;;9.25;3.80;;;;;;;;;;5021252;28;20119;-67
2023/09/15 08:09:17;;;;;;;7.95;3.38;;;;;;;;;;5015102;28;20070;-67
2023/09/15 08:11:44;;;;;;;11.17;3.20;;;;;;;;;;5015605;28;20069;-67
2023/09/15 08:14:13;;;;;;;12.88;3.70;;;;;;;;;;5006699;28;20066;-67
2023/09/15 08:16:40;;;;;;;9.55;3.60;;;;;;;;;;4998801;28;20056;-66
2023/09/15 08:19:06;;;;;;;9.77;3.78;;;;;;;;;;5014735;28;20068;-66
2023/09/15 08:21:34;;;;;;;8.18;3.38;;;;;;;;;;5016712;28;20083;-66
2023/09/15 08:24:03;;;;;;;11.40;3.92;;;;;;;;;;5007368;28;20148;-65
2023/09/15 08:26:31;;;;;;;8.07;3.35;;;;;;;;;;5013890;28;20068;-66
2023/09/15 08:28:57;;;;;;;6.60;3.10;;;;;;;;;;5012341;28;20077;-65
2023/09/15 08:31:25;;;;;;;11.80;3.30;;;;;;;;;;5004103;28;20057;-66
2023/09/15 08:33:53;;;;;;;13.82;3.53;;;;;;;;;;5008061;28;20057;-67
2023/09/15 08:36:21;;;;;;;11.82;3.42;;;;;;;;;;5009974;28;20073;-66
2023/09/15 08:38:50;;;;;;;11.25;3.13;;;;;;;;;;5018663;28;20076;-67
2023/09/15 08:41:22;;;;;;;9.63;3.38;;;;;;;;;;5020370;28;20061;-66
2023/09/15 08:43:50;;;;;;;9.68;3.53;;;;;;;;;;5017858;28;20053;-67
2023/09/15 08:46:19;;;;;;;13.32;3.60;;;;;;;;;;4986574;28;20061;-66
2023/09/15 08:48:49;;;;;;;;;;;;;;;;;;5000278;28;20057;-66
2023/09/15 08:51:16;;;;;;;14.25;3.13;;;;;;;;;;4979723;28;19967;-65
2023/09/15 08:53:44;;;;;;;10.55;3.38;;;;;;;;;;4989253;28;20061;-65
2023/09/15 08:56:14;;;;;;;9.27;3.20;;;;;;;;;;5007768;28;20060;-66
2023/09/15 08:58:42;;;;;;;12.52;3.40;;;;;;;;;;5018796;28;20049;-67
2023/09/15 09:01:09;;;;;;;8.27;3.53;;;;;;;;;;5023236;28;20069;-66
2023/09/15 09:03:38;;;;;;;8.23;3.00;;;;;;;;;;5019808;28;20102;-66
2023/09/15 09:06:09;;;;;;;10.68;3.80;;;;;;;;;;4994074;28;20064;-66
2023/09/15 09:08:37;;;;;;;9.05;3.50;;;;;;;;;;4996238;28;20066;-65
2023/09/15 09:11:04;;;;;;;7.78;2.60;;;;;;;;;;5018174;28;20065;-66
2023/09/15 09:13:32;;;;;;;9.82;3.17;;;;;;;;;;5002256;28;20081;-66
2023/09/15 09:15:59;;;;;;;10.07;3.28;;;;;;;;;;4996363;28;20131;-65
2023/09/15 09:18:26;;;;;;;9.43;3.00;;;;;;;;;;5011988;28;20072;-65
2023/09/15 09:20:55;;;;;;;13.15;3.42;;;;;;;;;;5023233;28;20069;-65
2023/09/15 09:23:22;;;;;;;12.85;3.78;;;;;;;;;;5018111;28;20097;-66
2023/09/15 09:25:52;;;;;;;8.65;3.25;;;;;;;;;;5014699;28;20061;-65
2023/09/15 09:28:19;;;;;;;7.22;2.78;;;;;;;;;;5009837;28;20104;-66
2023/09/15 09:30:47;;;;;;;8.25;2.92;;;;;;;;;;5017618;28;20119;-65
2023/09/15 09:33:14;;;;;;;8.80;2.63;;;;;;;;;;5018691;28;20053;-65
2023/09/15 09:35:41;;;;;;;9.35;2.95;;;;;;;;;;5005040;28;20136;-65
2023/09/15 09:38:08;;;;;;;11.35;3.00;;;;;;;;;;5015201;28;20061;-65
2023/09/15 09:40:36;;;;;;;5.87;2.20;;;;;;;;;;5013132;28;20053;-66
2023/09/15 09:43:04;;;;;;;9.07;2.75;;;;;;;;;;5020030;28;20088;-65
2023/09/15 09:45:31;;;;;;;9.82;3.10;;;;;;;;;;5012173;28;20131;-66
2023/09/15 09:48:02;;;;;;;7.82;2.97;;;;;;;;;;5000078;28;20061;-66
2023/09/15 09:50:29;;;;;;;7.45;2.70;;;;;;;;;;5035946;28;20136;-65
2023/09/15 09:52:56;;;;;;;6.15;2.42;;;;;;;;;;5037529;28;20147;-65
2023/09/15 09:55:26;;;;;;;7.93;2.67;;;;;;;;;;5014024;28;20123;-64
2023/09/15 09:57:52;;;;;;;10.55;3.40;;;;;;;;;;5017466;28;20085;-67
2023/09/15 10:00:21;;;;;;;11.35;3.33;;;;;;;;;;5010726;28;20053;-66
2023/09/15 10:02:48;;;;;;;8.18;2.85;;;;;;;;;;5017210;28;20049;-65
2023/09/15 10:05:16;;;;;;;8.32;2.90;;;;;;;;;;5014057;28;20099;-65
2023/09/15 10:07:45;;;;;;;8.40;3.22;;;;;;;;;;5019424;28;20057;-65
2023/09/15 10:10:13;;;;;;;11.90;3.22;;;;;;;;;;5014591;28;20049;-65
2023/09/15 10:12:42;;;;;;;9.60;2.90;;;;;;;;;;5006378;28;20058;-65
2023/09/15 10:15:14;;;;;;;9.48;3.05;;;;;;;;;;5003079;28;20073;-65
2023/09/15 10:17:41;;;;;;;5.57;2.38;;;;;;;;;;5017852;28;20057;-66
2023/09/15 10:20:12;;;;;;;5.25;2.42;;;;;;;;;;5014179;28;20065;-65
2023/09/15 10:22:41;;;;;;;10.15;2.80;;;;;;;;;;5017473;28;20049;-64
2023/09/15 10:25:16;;;;;;;5.57;2.28;;;;;;;;;;5012238;28;20138;-64
2023/09/15 10:27:45;;;;;;;7.10;2.17;;;;;;;;;;5023708;28;20045;-65
2023/09/15 10:30:12;;;;;;;5.50;2.13;;;;;;;;;;5019039;28;20045;-66
2023/09/15 10:32:39;;;;;;;5.40;2.15;;;;;;;;;;5011932;28;20061;-65
2023/09/15 10:35:06;;;;;;;7.43;2.67;;;;;;;;;;4999638;28;20065;-65
2023/09/15 10:37:33;;;;;;;10.82;3.20;;;;;;;;;;5017128;28;20146;-66
2023/09/15 10:40:12;;;;;;;10.38;3.00;;;;;;;;;;5016823;28;20118;-65
2023/09/15 10:42:48;;;;;;;9.63;3.03;;;;;;;;;;5009124;28;20057;-66
2023/09/15 10:45:15;;;;;;;7.63;3.00;;;;;;;;;;4997366;28;20057;-69
2023/09/15 10:47:42;;;;;;;6.63;2.70;;;;;;;;;;5017072;28;20056;-66
2023/09/15 10:50:10;;;;;;;12.48;3.03;;;;;;;;;;5015214;28;20085;-66
2023/09/15 10:52:38;;;;;;;8.77;2.85;;;;;;;;;;5014101;28;20057;-64
2023/09/15 10:55:08;;;;;;;7.57;2.75;;;;;;;;;;5016441;28;20144;-66
2023/09/15 10:57:36;;;;;;;8.95;3.15;;;;;;;;;;5037037;28;20155;-64
2023/09/15 11:00:09;;;;;;;8.02;2.92;;;;;;;;;;5029462;28;20053;-64
2023/09/15 11:02:36;;;;;;;6.32;2.63;;;;;;;;;;5017461;28;20064;-67
2023/09/15 11:05:10;;;;;;;8.10;3.10;;;;;;;;;;5011377;28;20053;-64
2023/09/15 11:07:38;;;;;;;9.40;3.05;;;;;;;;;;5018005;28;20050;-64
2023/09/15 11:10:08;;;;;;;7.60;2.83;;;;;;;;;;5013965;28;20057;-65
2023/09/15 11:12:35;;;;;;;7.63;3.05;;;;;;;;;;5017298;28;20140;-66
2023/09/15 11:15:02;;;;;;;7.82;3.22;;;;;;;;;;4985919;28;20065;-64
2023/09/15 11:17:30;;;;;;;7.70;3.17;;;;;;;;;;5016607;28;20057;-64
2023/09/15 11:19:57;;;;;;;9.45;2.95;;;;;;;;;;5017161;28;20053;-66
2023/09/15 11:22:24;;;;;;;11.00;3.00;;;;;;;;;;5009393;28;20049;-65
2023/09/15 11:24:54;;;;;;;10.20;3.08;;;;;;;;;;5019180;28;20057;-68
2023/09/15 11:27:24;;;;;;;16.70;3.42;;;;;;;;;;5016865;28;20041;-66
2023/09/15 11:29:51;;;;;;;8.40;2.80;;;;;;;;;;5023273;28;20095;-65
2023/09/15 11:32:18;;;;;;;6.35;2.85;;;;;;;;;;5009206;28;20069;-64
2023/09/15 11:34:45;;;;;;;9.23;2.83;;;;;;;;;;5001747;28;20061;-66
2023/09/15 11:37:16;;;;;;;11.18;2.63;;;;;;;;;;5030900;28;20119;-66
2023/09/15 11:39:50;;;;;;;9.10;3.17;;;;;;;;;;5015088;28;20078;-67
2023/09/15 11:42:17;;;;;;;8.57;2.75;;;;;;;;;;5011330;28;20053;-67
2023/09/15 11:44:47;;;;;;;7.53;3.05;;;;;;;;;;5004350;28;20123;-68
2023/09/15 11:47:15;;;;;;;8.75;3.00;;;;;;;;;;4989329;28;20068;-66
2023/09/15 11:49:42;;;;;;;9.48;3.42;;;;;;;;;;5015609;28;20084;-64
2023/09/15 11:52:09;;;;;;;9.15;3.72;;;;;;;;;;5012462;28;20059;-65
2023/09/15 11:54:36;;;;;;;6.28;2.63;;;;;;;;;;4990854;28;20176;-65
2023/09/15 11:57:04;;;;;;;9.10;3.25;;;;;;;;;;5032329;28;20045;-65
2023/09/15 11:59:31;;;;;;;11.32;3.20;;;;;;;;;;5019052;28;20140;-64
2023/09/15 12:02:02;;;;;;;7.70;3.20;;;;;;;;;;5020215;28;20093;-65
2023/09/15 12:04:29;;;;;;;8.20;2.60;;;;;;;;;;5010157;28;20069;-65
2023/09/15 12:06:56;;;;;;;8.57;2.90;;;;;;;;;;4994671;28;20054;-64
2023/09/15 12:09:24;;;;;;;11.40;3.00;;;;;;;;;;5021010;28;20058;-65
2023/09/15 12:11:52;;;;;;;7.20;2.90;;;;;;;;;;5020543;28;20169;-66
2023/09/15 12:14:19;;;;;;;;;;;;;;;;;;4992883;28;20069;-67
2023/09/15 12:16:46;;;;;;;8.63;3.15;;;;;;;;;;5018337;28;20012;-66
2023/09/15 12:19:16;;;;;;;8.40;2.60;;;;;;;;;;5018752;28;20152;-65
2023/09/15 12:21:53;;;;;;;6.93;2.47;;;;;;;;;;5021156;28;20107;-66
2023/09/15 12:24:21;;;;;;;6.77;2.80;;;;;;;;;;5009457;28;20057;-66
2023/09/15 12:26:48;;;;;;;7.13;2.90;;;;;;;;;;5011030;28;20093;-64
2023/09/15 12:29:17;;;;;;;8.57;3.17;;;;;;;;;;5019274;28;20130;-63
2023/09/15 12:31:45;;;;;;;7.28;2.88;;;;;;;;;;5019308;28;20053;-65
2023/09/15 12:34:19;;;;;;;8.10;2.55;;;;;;;;;;5007865;28;20076;-65
2023/09/15 12:36:47;;;;;;;8.45;2.53;;;;;;;;;;5017204;28;20152;-66
2023/09/15 12:39:14;;;;;;;11.38;2.80;;;;;;;;;;5020417;28;20130;-66
2023/09/15 12:41:43;;;;;;;7.75;2.80;;;;;;;;;;5019974;28;20172;-66
2023/09/15 12:44:13;;;;;;;7.90;2.67;;;;;;;;;;5005062;28;20066;-66
2023/09/15 12:46:40;;;;;;;6.50;2.88;;;;;;;;;;5026803;28;20140;-70
2023/09/15 12:49:07;;;;;;;10.98;2.97;;;;;;;;;;5029472;28;20068;-65
2023/09/15 12:51:38;;;;;;;11.48;2.72;;;;;;;;;;5024499;28;20234;-65
2023/09/15 12:54:12;;;;;;;6.47;2.67;;;;;;;;;;5020736;28;20116;-66
2023/09/15 12:56:39;;;;;;;5.38;2.70;;;;;;;;;;4996670;28;20068;-66
2023/09/15 12:59:08;;;;;;;7.35;2.30;;;;;;;;;;5022744;28;20081;-67
2023/09/15 13:01:35;;;;;;;7.93;3.08;;;;;;;;;;5024458;28;20122;-68
2023/09/15 13:04:05;;;;;;;10.00;4.17;;;;;;;;;;5019668;28;20045;-67
2023/09/15 13:06:35;;;;;;;11.13;4.32;;;;;;;;;;5013451;28;20057;-69
2023/09/15 13:09:04;;;;;;;14.27;3.17;;;;;;;;;;5021074;28;20061;-69
2023/09/15 13:11:31;;;;;;;6.70;3.10;;;;;;;;;;5023273;28;20076;-68
2023/09/15 13:14:00;;;;;;;9.18;3.10;;;;;;;;;;5007371;28;20075;-65
2023/09/15 13:16:27;;;;;;;7.10;2.53;;;;;;;;;;5011292;28;20068;-65
2023/09/15 13:18:54;;;;;;;7.30;2.45;;;;;;;;;;5019201;28;20115;-65
2023/09/15 13:21:20;;;;;;;7.40;2.45;;;;;;;;;;5020551;28;20131;-67
2023/09/15 13:23:47;;;;;;;8.50;2.40;;;;;;;;;;5021765;28;20053;-68
2023/09/15 13:26:15;;;;;;;8.32;2.58;;;;;;;;;;5012041;28;20061;-67
2023/09/15 13:28:42;;;;;;;;;;;;;;;;;;5020467;28;20080;-67
2023/09/15 13:31:09;;;;;;;11.93;3.60;;;;;;;;;;5024794;28;19968;-69
2023/09/15 13:33:38;;;;;;;8.52;3.30;;;;;;;;;;5017603;28;20176;-69
2023/09/15 13:36:06;;;;;;;10.07;4.18;;;;;;;;;;5002810;28;20057;-66
2023/09/15 13:38:32;;;;;;;9.32;2.17;;;;;;;;;;5015408;28;20061;-65
2023/09/15 13:41:00;;;;;;;6.50;2.50;;;;;;;;;;5020606;28;20076;-66
2023/09/15 13:43:29;;;;;;;5.03;2.10;;;;;;;;;;5019512;28;20073;-65
2023/09/15 13:45:56;;;;;;;8.65;2.60;;;;;;;;;;4947820;28;20054;-64
2023/09/15 13:48:23;;;;;;;5.18;2.25;;;;;;;;;;4992461;28;20119;-66
2023/09/15 13:50:51;;;;;;;5.60;2.25;;;;;;;;;;5000031;28;20042;-64
2023/09/15 13:53:18;;;;;;;;;;;;;;;;;;4995922;28;20070;-65
2023/09/15 13:55:47;;;;;;;7.13;2.03;;;;;;;;;;4994157;28;19935;-64
2023/09/15 13:58:18;;;;;;;5.22;2.00;;;;;;;;;;5015821;28;20076;-66
2023/09/15 14:00:58;;;;;;;12.35;2.72;;;;;;;;;;5015231;28;20057;-66
2023/09/15 14:03:25;;;;;;;10.00;2.97;;;;;;;;;;5017452;28;20077;-67
2023/09/15 14:05:53;;;;;;;7.68;3.17;;;;;;;;;;5015826;28;20069;-65
2023/09/15 14:08:20;;;;;;;11.57;3.05;;;;;;;;;;5011480;28;20096;-66
2023/09/15 14:10:46;;;;;;;5.18;2.17;;;;;;;;;;5018795;28;20079;-64
2023/09/15 14:13:15;;;;;;;6.82;2.60;;;;;;;;;;5019796;28;20057;-67
2023/09/15 14:15:42;;;;;;;5.35;2.10;;;;;;;;;;5015632;28;20053;-66
2023/09/15 14:18:11;;;;;;;7.38;2.92;;;;;;;;;;5021090;28;20046;-68
2023/09/15 14:20:38;;;;;;;11.55;4.07;;;;;;;;;;5015336;28;20068;-66
2023/09/15 14:23:05;;;;;;;7.07;2.53;;;;;;;;;;5018989;28;20057;-65
2023/09/15 14:25:31;;;;;;;8.15;2.50;;;;;;;;;;5005723;28;20152;-67
2023/09/15 14:27:58;;;;;;;5.18;2.25;;;;;;;;;;5005774;28;20180;-66
2023/09/15 14:30:25;;;;;;;6.32;2.85;;;;;;;;;;5007113;28;20359;-64
2023/09/15 14:32:52;;;;;;;6.65;2.10;;;;;;;;;;5032357;28;20138;-66
2023/09/15 14:35:21;;;;;;;7.68;2.22;;;;;;;;;;5015732;28;20060;-66
2023/09/15 14:37:47;;;;;;;8.23;2.60;;;;;;;;;;5017028;28;20077;-66
2023/09/15 14:40:14;;;;;;;4.40;1.88;;;;;;;;;;5011555;28;20126;-65
2023/09/15 14:42:41;;;;;;;4.18;1.92;;;;;;;;;;5018572;28;20070;-68